Time;durP1;ratioP1;P1;durP2;ratioP2;P2;SDS_P1;SDS_P2;PMS_P1;PMS_P2;Temp;Humidity;BMP_temperature;BMP_pressure;BME280_temperature;BME280_humidity;BME280_pressure;Samples;Min_cycle;Max_cycle;Signal;HPM_P1;HPM_P2
2023/10/03 00:01:40;;;;;;;34.53;14.10;;;16.90;99.90;;;;;;4999991;28;20292;-88
2023/10/03 00:04:09;;;;;;;27.53;13.37;;;16.80;99.90;;;;;;5009025;28;20178;-87
2023/10/03 00:06:35;;;;;;;27.83;14.47;;;16.90;99.90;;;;;;5002114;28;20701;-87
2023/10/03 00:09:01;;;;;;;32.03;14.07;;;16.70;99.90;;;;;;4995574;28;20195;-88
2023/10/03 00:11:27;;;;;;;33.33;15.17;;;16.80;99.90;;;;;;4995219;28;20582;-89
2023/10/03 00:13:53;;;;;;;32.27;15.00;;;16.70;99.90;;;;;;4995799;28;20206;-88
2023/10/03 00:16:21;;;;;;;32.67;14.27;;;16.80;99.90;;;;;;4996652;28;20182;-87
2023/10/03 00:18:47;;;;;;;32.07;13.60;;;16.90;99.90;;;;;;4996379;28;20297;-86
2023/10/03 00:21:12;;;;;;;34.13;14.77;;;17.70;99.90;;;;;;4996899;28;20630;-88
2023/10/03 00:23:38;;;;;;;33.57;14.37;;;17.90;99.90;;;;;;4997086;28;20194;-86
2023/10/03 00:26:07;;;;;;;30.97;14.77;;;16.80;99.90;;;;;;4995796;28;20182;-88
2023/10/03 00:28:36;;;;;;;30.00;14.37;;;16.80;99.90;;;;;;4995706;28;20551;-88
2023/10/03 00:31:09;;;;;;;33.97;14.60;;;16.70;99.90;;;;;;4995372;28;20217;-89
2023/10/03 00:33:36;;;;;;;29.90;13.23;;;16.80;99.90;;;;;;4996083;28;20627;-88
2023/10/03 00:36:03;;;;;;;31.40;14.03;;;16.80;99.90;;;;;;4996096;28;20190;-88
2023/10/03 00:38:29;;;;;;;30.83;14.30;;;17.00;99.90;;;;;;4995585;28;20202;-89
2023/10/03 00:40:55;;;;;;;26.07;12.97;;;17.10;99.90;;;;;;4997160;28;20241;-86
2023/10/03 00:43:21;;;;;;;27.30;12.40;;;17.00;99.90;;;;;;5000196;28;20178;-88
2023/10/03 00:45:51;;;;;;;27.07;12.77;;;16.90;99.90;;;;;;5001130;28;20188;-88
2023/10/03 00:48:20;;;;;;;27.93;13.60;;;16.90;99.90;;;;;;4985394;28;20232;-88
2023/10/03 00:50:46;;;;;;;29.80;12.90;;;17.10;99.90;;;;;;5000867;28;20186;-88
2023/10/03 00:53:12;;;;;;;30.57;13.57;;;17.00;99.90;;;;;;4998801;28;20190;-88
2023/10/03 00:55:40;;;;;;;29.07;13.73;;;17.60;99.90;;;;;;4982505;28;20214;-86
2023/10/03 00:58:17;;;;;;;27.77;12.43;;;17.50;99.90;;;;;;5002274;28;20230;-89
2023/10/03 01:00:45;;;;;;;28.43;13.20;;;17.00;99.90;;;;;;5002623;28;20222;-88
2023/10/03 01:03:31;;;;;;;26.17;11.87;;;17.10;99.90;;;;;;4999508;28;20182;-88
2023/10/03 01:06:08;;;;;;;27.33;12.47;;;17.70;99.90;;;;;;4997861;28;20253;-87
2023/10/03 01:08:39;;;;;;;22.83;11.63;;;17.00;99.90;;;;;;4997241;28;20202;-88
2023/10/03 01:11:13;;;;;;;27.70;12.40;;;17.00;99.90;;;;;;4997990;28;20277;-87
2023/10/03 01:13:39;;;;;;;29.57;12.73;;;17.00;99.90;;;;;;4997965;28;20179;-87
2023/10/03 01:16:06;;;;;;;24.90;11.90;;;17.10;99.90;;;;;;4996439;28;20646;-86
2023/10/03 01:18:33;;;;;;;33.23;12.83;;;17.10;99.90;;;;;;4996670;28;20603;-88
2023/10/03 01:21:04;;;;;;;21.63;10.73;;;17.20;99.90;;;;;;4996916;28;20214;-89
2023/10/03 01:23:36;;;;;;;25.10;11.87;;;17.40;99.90;;;;;;4996709;28;20182;-88
2023/10/03 01:26:04;;;;;;;22.40;11.13;;;17.20;99.90;;;;;;4996326;28;20186;-87
2023/10/03 01:28:30;;;;;;;23.83;11.53;;;17.10;99.90;;;;;;4996352;28;20209;-88
2023/10/03 01:30:56;;;;;;;20.00;10.57;;;17.20;99.90;;;;;;4979677;28;20206;-88
2023/10/03 01:33:26;;;;;;;22.63;10.83;;;17.10;99.90;;;;;;4995892;28;20193;-89
2023/10/03 01:35:53;;;;;;;19.37;9.80;;;17.20;99.90;;;;;;4995141;28;20190;-88
2023/10/03 01:38:19;;;;;;;24.27;9.00;;;17.20;99.90;;;;;;4995362;28;20202;-86
2023/10/03 01:40:51;;;;;;;19.33;8.73;;;17.30;99.90;;;;;;4994946;28;20216;-88
2023/10/03 01:43:16;;;;;;;17.77;9.27;;;17.30;99.90;;;;;;4995729;28;20190;-88
2023/10/03 01:45:42;;;;;;;20.13;9.23;;;17.40;99.90;;;;;;4995590;28;20178;-88
2023/10/03 01:48:12;;;;;;;20.63;8.90;;;17.40;99.90;;;;;;4995309;28;20597;-87
2023/10/03 01:50:38;;;;;;;18.77;9.27;;;17.50;99.90;;;;;;4995173;28;20190;-88
2023/10/03 01:53:07;;;;;;;19.63;8.83;;;17.50;99.90;;;;;;4997599;28;20187;-87
2023/10/03 01:55:33;;;;;;;17.90;8.10;;;17.60;99.90;;;;;;4980190;28;20233;-88
2023/10/03 01:57:59;;;;;;;19.57;8.93;;;17.60;99.90;;;;;;4994441;28;20214;-88
2023/10/03 02:00:26;;;;;;;19.40;8.53;;;17.70;99.90;;;;;;4994439;28;20240;-89
2023/10/03 02:03:01;;;;;;;17.70;8.17;;;17.70;99.90;;;;;;4992469;28;20649;-89
2023/10/03 02:05:28;;;;;;;16.77;7.73;;;18.00;99.90;;;;;;4994635;28;20178;-88
2023/10/03 02:07:58;;;;;;;16.53;8.07;;;17.80;99.90;;;;;;4980518;28;20785;-86
2023/10/03 02:10:26;;;;;;;16.70;8.67;;;17.80;99.90;;;;;;4994428;28;20193;-88
2023/10/03 02:12:53;;;;;;;16.37;8.63;;;18.30;99.90;;;;;;4994958;28;20186;-88
2023/10/03 02:15:23;;;;;;;18.13;8.13;;;18.60;99.90;;;;;;4994497;28;20182;-88
2023/10/03 02:17:53;;;;;;;15.77;8.03;;;18.10;99.90;;;;;;4995305;28;20250;-89
2023/10/03 02:20:20;;;;;;;19.97;9.67;;;18.20;99.90;;;;;;4994713;28;20194;-88
2023/10/03 02:22:53;;;;;;;19.67;9.00;;;18.20;99.90;;;;;;4997393;28;20180;-90
2023/10/03 02:25:27;;;;;;;17.13;8.50;;;18.40;99.90;;;;;;4994506;28;20257;-87
2023/10/03 02:27:54;;;;;;;18.10;8.77;;;18.40;99.90;;;;;;4994408;28;20174;-88
2023/10/03 02:30:25;;;;;;;18.20;8.50;;;18.40;99.90;;;;;;4947833;28;1194204;-88
2023/10/03 02:32:53;;;;;;;16.87;8.23;;;18.60;99.90;;;;;;4988055;28;20178;-88
2023/10/03 02:35:22;;;;;;;19.13;9.27;;;18.90;99.90;;;;;;4995094;28;20696;-88
2023/10/03 02:37:49;;;;;;;15.43;7.97;;;18.60;99.90;;;;;;4994624;28;20200;-89
2023/10/03 02:40:22;;;;;;;17.70;8.27;;;18.80;99.90;;;;;;4994471;28;20178;-88
2023/10/03 02:42:49;;;;;;;14.93;8.27;;;18.80;99.90;;;;;;4995174;28;20277;-86
2023/10/03 02:45:17;;;;;;;16.20;7.80;;;18.70;99.90;;;;;;4994715;28;20181;-88
2023/10/03 02:47:43;;;;;;;14.30;7.13;;;18.90;99.90;;;;;;4994171;28;20244;-88
2023/10/03 02:50:12;;;;;;;16.73;8.13;;;18.90;99.90;;;;;;4995014;28;20202;-88
2023/10/03 02:52:39;;;;;;;19.87;8.20;;;19.00;99.90;;;;;;4994836;28;20229;-88
2023/10/03 02:55:08;;;;;;;16.40;8.13;;;19.00;99.90;;;;;;4994461;28;20261;-86
2023/10/03 02:57:35;;;;;;;17.97;7.37;;;19.00;99.90;;;;;;4994227;28;20200;-87
2023/10/03 03:00:05;;;;;;;18.27;8.63;;;18.80;99.90;;;;;;4978120;28;20633;-88
2023/10/03 03:02:32;;;;;;;17.30;7.93;;;19.20;99.70;;;;;;4994116;28;20188;-87
2023/10/03 03:04:59;;;;;;;16.57;7.37;;;19.20;98.40;;;;;;4994595;28;20281;-87
2023/10/03 03:07:27;;;;;;;18.17;7.30;;;19.50;98.10;;;;;;4994975;28;20649;-88
2023/10/03 03:09:56;;;;;;;18.83;7.97;;;19.40;96.30;;;;;;4993957;28;20198;-87
2023/10/03 03:12:22;;;;;;;18.83;7.97;;;19.40;96.20;;;;;;4994598;28;20214;-88
2023/10/03 03:14:48;;;;;;;16.37;7.27;;;19.60;96.00;;;;;;4998096;28;20186;-88
2023/10/03 03:17:14;;;;;;;14.67;7.07;;;19.50;95.20;;;;;;4997082;28;20195;-88
2023/10/03 03:19:40;;;;;;;13.30;6.33;;;19.60;95.20;;;;;;4994530;28;20206;-89
2023/10/03 03:22:06;;;;;;;19.27;7.67;;;19.70;92.90;;;;;;4995230;28;20554;-87
2023/10/03 03:24:34;;;;;;;18.70;7.93;;;19.50;93.20;;;;;;4995272;28;20193;-89
2023/10/03 03:27:00;;;;;;;16.03;7.67;;;19.90;93.00;;;;;;4978343;28;20258;-89
2023/10/03 03:29:35;;;;;;;14.50;7.70;;;19.80;91.90;;;;;;4994429;28;20272;-89
2023/10/03 03:32:01;;;;;;;15.87;7.37;;;19.50;90.60;;;;;;4994795;28;20181;-89
2023/10/03 03:34:28;;;;;;;16.67;7.03;;;19.70;89.70;;;;;;4997556;28;20217;-88
2023/10/03 03:36:54;;;;;;;13.97;6.50;;;19.80;85.00;;;;;;4993559;28;20214;-89
2023/10/03 03:39:20;;;;;;;13.30;7.10;;;19.80;81.50;;;;;;4994245;28;20300;-89
2023/10/03 03:41:48;;;;;;;13.93;6.97;;;20.00;79.10;;;;;;4993824;28;20297;-87
2023/10/03 03:44:18;;;;;;;19.13;8.03;;;20.10;73.80;;;;;;4993795;28;20213;-88
2023/10/03 03:46:44;;;;;;;14.20;6.63;;;20.10;67.60;;;;;;4994578;28;20265;-88
2023/10/03 03:49:12;;;;;;;16.00;7.17;;;20.20;67.30;;;;;;4994100;28;20245;-87
2023/10/03 03:51:39;;;;;;;14.47;7.40;;;20.10;65.40;;;;;;4993756;28;20201;-88
2023/10/03 03:54:07;;;;;;;11.87;6.97;;;20.20;64.20;;;;;;4993499;28;20289;-89
2023/10/03 03:56:34;;;;;;;10.40;5.63;;;20.30;61.60;;;;;;4994426;28;20190;-88
2023/10/03 03:59:00;;;;;;;15.47;7.00;;;20.40;60.10;;;;;;4993940;28;20217;-87
2023/10/03 04:01:26;;;;;;;16.80;6.50;;;20.40;60.00;;;;;;4993594;28;20210;-88
2023/10/03 04:03:53;;;;;;;20.13;6.70;;;20.40;59.40;;;;;;4993827;28;20232;-88
2023/10/03 04:06:20;;;;;;;13.93;6.40;;;20.40;60.00;;;;;;4994733;28;20182;-88
2023/10/03 04:08:46;;;;;;;12.97;6.63;;;20.50;58.50;;;;;;4993222;28;20249;-89
2023/10/03 04:11:13;;;;;;;14.50;6.77;;;20.50;58.90;;;;;;4993829;28;20221;-88
2023/10/03 04:13:49;;;;;;;19.23;7.47;;;20.60;59.40;;;;;;4994179;28;20210;-89
2023/10/03 04:16:20;;;;;;;15.77;7.13;;;20.50;56.40;;;;;;4994953;28;20174;-87
2023/10/03 04:18:49;;;;;;;13.93;6.67;;;20.60;60.50;;;;;;4997242;28;20206;-87
2023/10/03 04:21:15;;;;;;;16.93;7.67;;;20.60;62.80;;;;;;4980998;28;20219;-88
2023/10/03 04:23:42;;;;;;;14.00;6.60;;;20.60;59.50;;;;;;4997271;28;20205;-88
2023/10/03 04:26:08;;;;;;;16.70;7.63;;;20.50;62.60;;;;;;4997283;28;20273;-87
2023/10/03 04:28:34;;;;;;;14.27;5.90;;;20.50;60.80;;;;;;5001744;28;20742;-88
2023/10/03 04:30:59;;;;;;;16.90;6.70;;;20.60;59.70;;;;;;4998462;28;20241;-88
2023/10/03 04:33:25;;;;;;;16.13;6.87;;;20.60;59.00;;;;;;4997209;28;20189;-89
2023/10/03 04:35:51;;;;;;;14.37;7.50;;;20.60;66.50;;;;;;4997186;28;20233;-88
2023/10/03 04:38:17;;;;;;;15.90;7.20;;;20.60;68.10;;;;;;4996843;28;20206;-90
2023/10/03 04:40:44;;;;;;;15.90;7.07;;;20.60;66.90;;;;;;4997064;28;20233;-89
2023/10/03 04:43:14;;;;;;;14.77;6.90;;;20.50;66.90;;;;;;4997313;28;20178;-86
2023/10/03 04:45:40;;;;;;;15.27;7.27;;;20.50;67.10;;;;;;4998408;28;20557;-87
2023/10/03 04:48:07;;;;;;;18.50;7.33;;;20.50;74.10;;;;;;4997392;28;20194;-88
2023/10/03 04:50:35;;;;;;;13.73;6.60;;;20.30;73.90;;;;;;4998430;28;20179;-89
2023/10/03 04:53:02;;;;;;;17.30;7.03;;;20.30;76.70;;;;;;4999998;28;20179;-89
2023/10/03 04:55:28;;;;;;;16.77;7.33;;;20.30;79.30;;;;;;4996305;28;20180;-87
2023/10/03 04:57:55;;;;;;;16.57;7.07;;;20.20;80.50;;;;;;4995776;28;20677;-89
2023/10/03 05:00:22;;;;;;;22.70;8.43;;;20.30;83.40;;;;;;4995794;28;20187;-88
2023/10/03 05:02:51;;;;;;;18.90;8.33;;;20.30;82.20;;;;;;4980223;28;20186;-87
2023/10/03 05:05:20;;;;;;;22.17;7.90;;;20.30;79.90;;;;;;4996565;28;20182;-89
2023/10/03 05:07:48;;;;;;;17.07;7.87;;;20.20;82.50;;;;;;4996359;28;20174;-87
2023/10/03 05:10:17;;;;;;;13.37;7.37;;;20.20;86.30;;;;;;4996347;28;20651;-88
2023/10/03 05:12:45;;;;;;;16.77;7.60;;;20.20;86.90;;;;;;4996342;28;20209;-87
2023/10/03 05:15:12;;;;;;;16.03;8.03;;;20.10;88.90;;;;;;4996144;28;20265;-89
2023/10/03 05:17:38;;;;;;;16.83;6.50;;;20.10;89.40;;;;;;4996624;28;20174;-88
2023/10/03 05:20:04;;;;;;;15.70;7.73;;;20.10;90.50;;;;;;4995978;28;20256;-88
2023/10/03 05:22:32;;;;;;;14.20;7.77;;;20.10;91.60;;;;;;4996045;28;20260;-89
2023/10/03 05:24:58;;;;;;;17.60;7.70;;;20.10;93.30;;;;;;4996194;28;20317;-88
2023/10/03 05:27:24;;;;;;;17.07;7.10;;;20.10;92.60;;;;;;4996426;28;20273;-88
2023/10/03 05:29:51;;;;;;;17.73;8.07;;;19.90;93.10;;;;;;4995610;28;20624;-88
2023/10/03 05:32:17;;;;;;;14.20;7.57;;;20.00;95.80;;;;;;4996506;28;20199;-87
2023/10/03 05:34:43;;;;;;;15.97;7.27;;;20.00;95.70;;;;;;4995971;28;20293;-88
2023/10/03 05:37:10;;;;;;;14.47;7.40;;;20.00;95.90;;;;;;4996025;28;20206;-88
2023/10/03 05:39:36;;;;;;;14.97;7.37;;;19.90;98.40;;;;;;4996006;28;20226;-89
2023/10/03 05:42:02;;;;;;;19.73;7.80;;;19.90;98.30;;;;;;4995564;28;20264;-89
2023/10/03 05:44:28;;;;;;;17.77;7.83;;;19.90;99.30;;;;;;4996098;28;20181;-89
2023/10/03 05:46:55;;;;;;;16.17;8.30;;;19.80;99.20;;;;;;4996778;28;20206;-89
2023/10/03 05:49:22;;;;;;;17.50;6.70;;;19.80;99.70;;;;;;4995684;28;20198;-89
2023/10/03 05:51:49;;;;;;;12.23;7.07;;;19.80;99.90;;;;;;4996081;28;20185;-89
2023/10/03 05:54:15;;;;;;;13.63;6.53;;;19.70;99.90;;;;;;4996947;28;20183;-89
2023/10/03 05:56:41;;;;;;;14.47;7.10;;;19.70;99.90;;;;;;4996395;28;20569;-88
2023/10/03 05:59:08;;;;;;;12.30;6.37;;;19.80;99.90;;;;;;4996120;28;20213;-88
2023/10/03 06:01:33;;;;;;;13.97;7.27;;;19.70;99.90;;;;;;4995616;28;20213;-89
2023/10/03 06:03:59;;;;;;;14.53;6.40;;;19.70;99.90;;;;;;4994578;28;20182;-88
2023/10/03 06:06:28;;;;;;;12.97;4.77;;;19.90;99.90;;;;;;4994947;28;20186;-89
2023/10/03 06:08:54;;;;;;;14.43;6.67;;;19.70;99.90;;;;;;4996455;28;20202;-85
2023/10/03 06:11:19;;;;;;;14.67;6.43;;;19.70;99.90;;;;;;5002629;28;20190;-86
2023/10/03 06:13:46;;;;;;;9.33;5.67;;;19.80;99.90;;;;;;5001594;28;20599;-85
2023/10/03 06:16:12;;;;;;;12.13;5.77;;;19.70;99.90;;;;;;5001457;28;20189;-85
2023/10/03 06:18:40;;;;;;;9.30;4.50;;;19.80;99.90;;;;;;5003426;28;20202;-83
2023/10/03 06:21:07;;;;;;;10.20;4.47;;;19.60;99.90;;;;;;5003169;28;20246;-86
2023/10/03 06:23:33;;;;;;;12.60;4.93;;;19.60;99.90;;;;;;5003099;28;20174;-85
2023/10/03 06:25:59;;;;;;;11.97;4.33;;;19.60;99.90;;;;;;5002323;28;20185;-85
2023/10/03 06:28:24;;;;;;;11.13;5.23;;;19.60;99.90;;;;;;5003131;28;20202;-86
2023/10/03 06:30:52;;;;;;;8.93;5.30;;;19.60;99.90;;;;;;5000277;28;20201;-84
2023/10/03 06:33:17;;;;;;;7.57;4.47;;;19.60;99.90;;;;;;5001736;28;20293;-86
2023/10/03 06:35:43;;;;;;;8.27;4.30;;;19.50;99.90;;;;;;5003806;28;20182;-85
2023/10/03 06:38:09;;;;;;;12.67;5.20;;;19.50;99.90;;;;;;5001828;28;20352;-85
2023/10/03 06:40:36;;;;;;;7.20;3.53;;;19.50;99.90;;;;;;5001817;28;20211;-85
2023/10/03 06:43:02;;;;;;;9.53;4.67;;;19.50;99.90;;;;;;5004154;28;20166;-86
2023/10/03 06:45:29;;;;;;;9.30;4.13;;;19.40;99.90;;;;;;5004173;28;20182;-85
2023/10/03 06:47:55;;;;;;;9.33;3.80;;;19.20;99.90;;;;;;5004145;28;20205;-86
2023/10/03 06:50:23;;;;;;;8.50;4.07;;;19.40;99.90;;;;;;5002614;28;20237;-87
2023/10/03 06:52:48;;;;;;;6.63;3.60;;;19.40;99.90;;;;;;4987801;28;20254;-86
2023/10/03 06:55:15;;;;;;;10.27;4.10;;;19.30;99.90;;;;;;5004467;28;20179;-83
2023/10/03 06:57:41;;;;;;;4.43;3.00;;;19.50;99.90;;;;;;5003754;28;20178;-84
2023/10/03 07:00:13;;;;;;;8.50;3.60;;;19.30;99.90;;;;;;5003311;28;20552;-85
2023/10/03 07:02:39;;;;;;;8.13;3.67;;;19.20;99.90;;;;;;5000230;28;20198;-85
2023/10/03 07:05:10;;;;;;;11.03;4.53;;;19.20;99.90;;;;;;4999967;28;20182;-84
2023/10/03 07:07:37;;;;;;;7.77;3.93;;;19.10;99.90;;;;;;5003160;28;20154;-85
2023/10/03 07:10:04;;;;;;;7.87;3.90;;;19.10;99.90;;;;;;5002338;28;20731;-86
2023/10/03 07:12:29;;;;;;;11.10;4.47;;;19.10;99.90;;;;;;5001544;28;20193;-86
2023/10/03 07:14:55;;;;;;;10.57;4.83;;;19.10;99.90;;;;;;5000290;28;20178;-84
2023/10/03 07:17:23;;;;;;;7.37;4.27;;;19.10;99.90;;;;;;4998477;28;20187;-82
2023/10/03 07:19:49;;;;;;;10.13;4.23;;;19.10;99.90;;;;;;4998057;28;20601;-84
2023/10/03 07:22:16;;;;;;;9.30;3.97;;;19.20;99.90;;;;;;4997721;28;20210;-84
2023/10/03 07:24:43;;;;;;;9.37;4.77;;;19.60;99.90;;;;;;4999025;28;20205;-84
2023/10/03 07:27:08;;;;;;;7.20;3.83;;;19.30;99.90;;;;;;4997437;28;20588;-84
2023/10/03 07:29:36;;;;;;;7.73;4.40;;;19.20;99.90;;;;;;4995385;28;20202;-84
2023/10/03 07:32:03;;;;;;;10.13;4.50;;;19.20;99.90;;;;;;4995323;28;20655;-84
2023/10/03 07:34:29;;;;;;;6.17;3.43;;;19.30;99.90;;;;;;4994822;28;20242;-82
2023/10/03 07:36:55;;;;;;;7.53;3.43;;;19.30;99.90;;;;;;4995002;28;20260;-82
2023/10/03 07:39:21;;;;;;;9.67;4.50;;;19.20;99.90;;;;;;4995260;28;20217;-84
2023/10/03 07:41:51;;;;;;;6.17;3.90;;;19.20;99.90;;;;;;4996368;28;20206;-82
2023/10/03 07:44:17;;;;;;;6.33;3.83;;;19.30;99.90;;;;;;4997992;28;20170;-85
2023/10/03 07:46:43;;;;;;;7.27;4.00;;;19.20;99.90;;;;;;4996523;28;20677;-84
2023/10/03 07:49:09;;;;;;;9.07;4.70;;;19.30;99.90;;;;;;4996768;28;20198;-85
2023/10/03 07:51:35;;;;;;;6.77;4.40;;;19.30;99.90;;;;;;4999251;28;20205;-84
2023/10/03 07:54:03;;;;;;;7.33;4.03;;;19.30;99.90;;;;;;5000040;28;20186;-86
2023/10/03 07:56:32;;;;;;;12.87;4.40;;;19.40;99.90;;;;;;5001588;28;20204;-85
2023/10/03 07:59:02;;;;;;;6.13;3.77;;;19.40;99.90;;;;;;5001149;28;20281;-83
2023/10/03 08:01:29;;;;;;;13.03;5.13;;;19.50;99.90;;;;;;5000174;28;20272;-83
2023/10/03 08:03:55;;;;;;;11.17;3.77;;;19.60;99.90;;;;;;5001406;28;20774;-86
2023/10/03 08:06:24;;;;;;;8.47;3.77;;;19.60;99.90;;;;;;5001538;28;20309;-84
2023/10/03 08:08:55;;;;;;;7.93;3.70;;;19.60;99.90;;;;;;5000252;28;20561;-84
2023/10/03 08:11:32;;;;;;;7.40;4.00;;;19.60;99.90;;;;;;4999730;28;20179;-86
2023/10/03 08:14:13;;;;;;;7.90;4.10;;;19.60;99.90;;;;;;5001244;28;20189;-83
2023/10/03 08:16:42;;;;;;;9.43;4.07;;;19.60;99.90;;;;;;5001656;28;20169;-84
2023/10/03 08:19:09;;;;;;;7.73;3.63;;;19.70;99.90;;;;;;5000413;28;20202;-84
2023/10/03 08:21:35;;;;;;;8.57;4.20;;;19.60;99.90;;;;;;5000588;28;20281;-86
2023/10/03 08:24:09;;;;;;;5.27;3.27;;;19.70;99.90;;;;;;5000818;28;20182;-86
2023/10/03 08:26:37;;;;;;;7.73;3.57;;;19.70;99.90;;;;;;5001444;28;20154;-84
2023/10/03 08:29:05;;;;;;;7.03;2.97;;;19.60;99.90;;;;;;5000096;28;20256;-85
2023/10/03 08:31:32;;;;;;;7.87;3.23;;;19.60;99.90;;;;;;5003492;28;20198;-85
2023/10/03 08:34:00;;;;;;;8.77;3.43;;;19.60;99.90;;;;;;5003839;28;20193;-85
2023/10/03 08:36:28;;;;;;;7.90;3.50;;;19.80;99.90;;;;;;5004278;28;20174;-85
2023/10/03 08:39:05;;;;;;;5.53;2.70;;;19.60;99.90;;;;;;5005105;28;20202;-86
2023/10/03 08:42:13;;;;;;;6.87;2.97;;;19.50;99.90;;;;;;5007440;28;20261;-85
2023/10/03 08:44:52;;;;;;;6.33;2.40;;;19.50;99.90;;;;;;5010109;28;20201;-85
2023/10/03 08:47:28;;;;;;;7.27;3.13;;;19.50;99.90;;;;;;5009083;28;20312;-85
2023/10/03 08:50:10;;;;;;;6.00;3.17;;;19.50;99.90;;;;;;5004006;28;20209;-85
2023/10/03 08:52:46;;;;;;;7.37;3.30;;;19.60;99.90;;;;;;5004014;28;20208;-84
2023/10/03 08:55:14;;;;;;;4.27;2.70;;;19.60;99.90;;;;;;5003847;28;20201;-86
2023/10/03 08:57:40;;;;;;;7.27;3.33;;;19.60;99.90;;;;;;5004353;28;20178;-85
2023/10/03 09:00:09;;;;;;;6.67;3.10;;;19.80;99.90;;;;;;5004371;28;20740;-86
2023/10/03 09:02:45;;;;;;;7.53;3.40;;;19.60;99.90;;;;;;5002734;28;20662;-86
2023/10/03 09:05:22;;;;;;;8.07;3.20;;;19.60;99.90;;;;;;5005153;28;20158;-85
2023/10/03 09:07:50;;;;;;;4.40;2.83;;;19.60;99.90;;;;;;5003729;28;20158;-83
2023/10/03 09:10:23;;;;;;;4.27;2.37;;;19.50;99.90;;;;;;5004201;28;20178;-83
2023/10/03 09:12:51;;;;;;;4.40;2.63;;;19.60;99.90;;;;;;5003407;28;20221;-83
2023/10/03 09:15:19;;;;;;;5.10;3.10;;;19.70;99.90;;;;;;5003453;28;20237;-85
2023/10/03 09:17:49;;;;;;;6.40;3.53;;;19.70;99.90;;;;;;5003220;28;20197;-85
2023/10/03 09:20:22;;;;;;;5.93;3.27;;;19.70;99.90;;;;;;5003086;28;20186;-88
2023/10/03 09:22:52;;;;;;;6.30;3.50;;;19.70;99.90;;;;;;5003544;28;20202;-85
2023/10/03 09:25:21;;;;;;;4.43;3.27;;;19.70;99.90;;;;;;5002376;28;20185;-83
2023/10/03 09:27:47;;;;;;;7.27;3.60;;;19.70;99.90;;;;;;4986260;28;20209;-85
2023/10/03 09:30:23;;;;;;;7.60;3.37;;;19.70;99.90;;;;;;5002107;28;20198;-86
2023/10/03 09:32:50;;;;;;;4.80;3.40;;;19.70;99.90;;;;;;5002131;28;20178;-86
2023/10/03 09:35:17;;;;;;;10.47;3.40;;;19.80;99.90;;;;;;5002939;28;20179;-85
2023/10/03 09:37:48;;;;;;;4.73;3.00;;;19.80;99.90;;;;;;5002517;28;20676;-85
2023/10/03 09:40:17;;;;;;;7.40;3.03;;;19.90;99.90;;;;;;5004272;28;20181;-86
2023/10/03 09:42:48;;;;;;;4.07;2.97;;;19.90;99.90;;;;;;5004747;28;20163;-85
2023/10/03 09:45:26;;;;;;;6.03;3.10;;;20.00;99.90;;;;;;5003540;28;20180;-85
2023/10/03 09:47:58;;;;;;;4.53;3.00;;;20.00;99.90;;;;;;4988533;28;20185;-85
2023/10/03 09:50:27;;;;;;;5.63;2.87;;;20.10;99.90;;;;;;5002982;28;20159;-87
2023/10/03 09:52:54;;;;;;;8.73;3.43;;;20.00;99.90;;;;;;5000190;28;20154;-86
2023/10/03 09:55:26;;;;;;;7.50;3.40;;;20.10;99.90;;;;;;5000740;28;20191;-87
2023/10/03 09:57:59;;;;;;;4.70;2.73;;;20.00;99.90;;;;;;5004752;28;20155;-85
2023/10/03 10:01:11;;;;;;;7.00;3.20;;;20.00;99.90;;;;;;5003350;28;20525;-86
2023/10/03 10:03:19;;;;;;;5.53;3.07;;;20.00;99.90;;;;;;5001542;28;20281;-86
2023/10/03 10:06:28;;;;;;;8.90;3.40;;;20.00;99.90;;;;;;5006098;28;20173;-86
2023/10/03 10:09:23;;;;;;;4.67;2.80;;;20.00;99.90;;;;;;5003557;28;20687;-86
2023/10/03 10:12:21;;;;;;;6.50;3.03;;;20.00;99.90;;;;;;5006515;28;20169;-87
2023/10/03 10:17:52;;;;;;;7.63;2.97;;;19.90;99.90;;;;;;5005979;28;20234;-86
2023/10/03 10:20:38;;;;;;;6.33;3.60;;;19.80;99.90;;;;;;5004478;28;20171;-84
2023/10/03 10:25:57;;;;;;;6.60;3.10;;;19.60;99.90;;;;;;5008898;28;20195;-87
2023/10/03 10:28:28;;;;;;;6.27;2.70;;;19.50;99.90;;;;;;5009581;28;20198;-87
2023/10/03 10:31:21;;;;;;;5.30;2.60;;;19.10;99.90;;;;;;5010643;28;20224;-85
2023/10/03 10:33:49;;;;;;;6.57;2.80;;;18.80;99.90;;;;;;5010301;28;20190;-87
2023/10/03 10:36:18;;;;;;;7.17;2.57;;;18.60;99.90;;;;;;4995561;28;20605;-87
2023/10/03 10:38:44;;;;;;;6.73;2.93;;;18.50;99.90;;;;;;5010553;28;20205;-85
2023/10/03 10:41:21;;;;;;;6.87;2.77;;;18.20;99.90;;;;;;5012092;28;20221;-87
2023/10/03 10:44:06;;;;;;;6.73;2.73;;;18.10;99.90;;;;;;5011259;28;20186;-87
2023/10/03 10:46:33;;;;;;;5.80;2.60;;;17.90;99.90;;;;;;5010177;28;20186;-86
2023/10/03 10:48:58;;;;;;;6.77;2.80;;;17.90;99.90;;;;;;5008690;28;20198;-86
2023/10/03 10:51:25;;;;;;;6.03;2.90;;;17.80;99.90;;;;;;5009269;28;20190;-87
2023/10/03 10:53:51;;;;;;;5.37;2.80;;;18.20;99.90;;;;;;5010330;28;20187;-85
2023/10/03 10:56:17;;;;;;;5.83;3.30;;;17.90;99.90;;;;;;5010313;28;20553;-86
2023/10/03 10:58:52;;;;;;;5.33;3.20;;;17.90;99.90;;;;;;5009806;28;20206;-87
2023/10/03 11:01:18;;;;;;;5.97;3.10;;;18.20;99.90;;;;;;5010509;28;20220;-87
2023/10/03 11:03:45;;;;;;;5.37;3.17;;;17.90;99.90;;;;;;5010989;28;20186;-85
2023/10/03 11:06:15;;;;;;;5.50;3.30;;;18.20;99.90;;;;;;5010935;28;20178;-85
2023/10/03 11:08:49;;;;;;;6.17;3.30;;;18.00;99.90;;;;;;5010505;28;20202;-87
2023/10/03 11:11:15;;;;;;;6.30;3.20;;;18.00;99.90;;;;;;5009209;28;20190;-87
2023/10/03 11:13:48;;;;;;;5.93;3.60;;;18.40;99.90;;;;;;5008993;28;20189;-86
2023/10/03 11:16:21;;;;;;;10.73;3.43;;;18.20;99.90;;;;;;5007169;28;20209;-85
2023/10/03 11:18:48;;;;;;;6.80;3.63;;;18.30;99.90;;;;;;5008609;28;20661;-86
2023/10/03 11:21:16;;;;;;;5.53;3.73;;;18.10;99.90;;;;;;5009265;28;20241;-87
2023/10/03 11:24:14;;;;;;;4.87;3.40;;;18.00;99.90;;;;;;5006674;28;20188;-86
2023/10/03 11:26:45;;;;;;;6.67;3.63;;;18.00;99.90;;;;;;5004241;28;20182;-86
2023/10/03 11:29:12;;;;;;;6.37;3.60;;;17.90;99.90;;;;;;5005045;28;20202;-84
2023/10/03 11:31:42;;;;;;;5.13;2.20;;;18.00;99.90;;;;;;5006092;28;20205;-86
2023/10/03 11:34:08;;;;;;;3.23;1.90;;;18.20;99.90;;;;;;5005281;28;20255;-85
2023/10/03 11:36:43;;;;;;;2.73;1.63;;;18.00;99.90;;;;;;5005314;28;20177;-85
2023/10/03 11:39:13;;;;;;;3.63;1.40;;;17.90;99.90;;;;;;5006198;28;20221;-86
2023/10/03 11:41:39;;;;;;;3.50;0.90;;;18.00;99.90;;;;;;5005185;28;20190;-86
2023/10/03 11:44:18;;;;;;;4.47;1.23;;;17.90;99.90;;;;;;5006235;28;20174;-86
2023/10/03 11:46:44;;;;;;;2.00;1.13;;;18.00;99.90;;;;;;5006033;28;20166;-85
2023/10/03 11:49:10;;;;;;;3.77;1.30;;;17.80;99.90;;;;;;5001656;28;20198;-86
2023/10/03 11:51:38;;;;;;;1.73;1.00;;;17.90;99.90;;;;;;5001224;28;20202;-85
2023/10/03 11:54:08;;;;;;;2.07;0.93;;;17.70;99.90;;;;;;5002235;28;20178;-86
2023/10/03 11:56:47;;;;;;;1.60;1.20;;;17.60;99.90;;;;;;5002700;28;20737;-85
2023/10/03 11:59:15;;;;;;;1.03;0.73;;;17.60;99.90;;;;;;4998614;28;20210;-86
2023/10/03 12:01:56;;;;;;;1.53;0.73;;;17.60;99.90;;;;;;4995357;28;20222;-87
2023/10/03 12:04:23;;;;;;;2.47;0.90;;;17.60;99.90;;;;;;4995881;28;20188;-85
2023/10/03 12:06:50;;;;;;;3.07;0.80;;;17.50;99.90;;;;;;4997611;28;20190;-85
2023/10/03 12:09:17;;;;;;;3.27;0.50;;;17.50;99.90;;;;;;4995875;28;20651;-85
2023/10/03 12:11:43;;;;;;;0.67;0.50;;;17.50;99.90;;;;;;4997652;28;20178;-85
2023/10/03 12:14:12;;;;;;;4.10;0.60;;;17.40;99.90;;;;;;4996286;28;20195;-86
2023/10/03 12:16:41;;;;;;;0.53;0.50;;;17.30;99.90;;;;;;4999886;28;20193;-87
2023/10/03 12:19:07;;;;;;;0.53;0.40;;;17.30;99.90;;;;;;5000240;28;20338;-88
2023/10/03 12:21:33;;;;;;;1.90;0.70;;;19.00;99.90;;;;;;4983488;28;20233;-88
2023/10/03 12:24:00;;;;;;;1.07;0.57;;;17.10;99.90;;;;;;5002779;28;20332;-89
2023/10/03 12:26:26;;;;;;;0.60;0.40;;;17.10;99.90;;;;;;5002200;28;20187;-86
2023/10/03 12:28:52;;;;;;;0.93;0.43;;;17.00;99.90;;;;;;5003536;28;20222;-88
2023/10/03 12:31:25;;;;;;;0.50;0.50;;;17.00;99.90;;;;;;5001229;28;20673;-88
2023/10/03 12:33:51;;;;;;;1.70;0.40;;;16.90;99.90;;;;;;5000595;28;20181;-85
2023/10/03 12:36:17;;;;;;;0.60;0.60;;;16.90;99.90;;;;;;5002855;28;20265;-87
2023/10/03 12:38:43;;;;;;;3.90;0.70;;;16.90;99.90;;;;;;5005643;28;20603;-87
2023/10/03 12:41:09;;;;;;;2.63;1.03;;;16.90;99.90;;;;;;5008258;28;20206;-87
2023/10/03 12:43:37;;;;;;;2.93;0.77;;;17.00;99.90;;;;;;5007033;28;20186;-87
2023/10/03 12:46:04;;;;;;;0.93;0.80;;;17.00;99.90;;;;;;5005057;28;20261;-87
2023/10/03 12:48:32;;;;;;;2.33;0.90;;;16.90;99.90;;;;;;5005086;28;20210;-88
2023/10/03 12:50:58;;;;;;;1.93;0.80;;;17.20;99.90;;;;;;5005487;28;20236;-87
2023/10/03 12:53:24;;;;;;;2.53;0.83;;;17.30;99.90;;;;;;5004925;28;20582;-86
2023/10/03 12:55:49;;;;;;;1.43;0.90;;;17.30;99.90;;;;;;5007668;28;20584;-86